Time;durP1;ratioP1;P1;durP2;ratioP2;P2;SDS_P1;SDS_P2;PMS_P1;PMS_P2;Temp;Humidity;BMP_temperature;BMP_pressure;BME280_temperature;BME280_humidity;BME280_pressure;Samples;Min_cycle;Max_cycle;Signal;HPM_P1;HPM_P2
2020/06/27 00:00:35;;;;;;;6;5.45;;;;;;;18.61;76.57813;94996.01;;;;
2020/06/27 00:01:38;;;;;;;6;5.45;;;;;;;18.61;76.57813;94996.01;;;;
2020/06/27 00:02:38;;;;;;;6;5.45;;;;;;;18.61;76.57813;94996.01;;;;
2020/06/27 00:03:39;;;;;;;6;5.45;;;;;;;18.61;76.57813;94996.01;;;;
2020/06/27 00:04:40;;;;;;;6;5.45;;;;;;;18.61;76.57813;94996.01;;;;
2020/06/27 00:05:40;;;;;;;5.75;5.25;;;;;;;18.55;76.75293;94996.22;;;;
2020/06/27 00:06:41;;;;;;;5.75;5.25;;;;;;;18.55;76.75293;94996.22;;;;
2020/06/27 00:07:42;;;;;;;5.75;5.25;;;;;;;18.55;76.75293;94996.22;;;;
2020/06/27 00:08:42;;;;;;;5.75;5.25;;;;;;;18.55;76.75293;94996.22;;;;
2020/06/27 00:09:43;;;;;;;5.75;5.25;;;;;;;18.55;76.75293;94996.22;;;;
2020/06/27 00:10:44;;;;;;;5.75;5.25;;;;;;;18.55;76.75293;94996.22;;;;
2020/06/27 00:11:44;;;;;;;5.75;5.25;;;;;;;18.55;76.75293;94996.22;;;;
2020/06/27 00:12:45;;;;;;;5.75;5.25;;;;;;;18.55;76.75293;94996.22;;;;
2020/06/27 00:13:45;;;;;;;5.75;5.25;;;;;;;18.55;76.75293;94996.22;;;;
2020/06/27 00:14:46;;;;;;;5.75;5.25;;;;;;;18.55;76.75293;94996.22;;;;
2020/06/27 00:15:46;;;;;;;6.100001;5.5;;;;;;;18.51;77.27832;94986.55;;;;
2020/06/27 00:16:48;;;;;;;6.100001;5.5;;;;;;;18.51;77.27832;94986.55;;;;
2020/06/27 00:17:48;;;;;;;6.100001;5.5;;;;;;;18.51;77.27832;94986.55;;;;
2020/06/27 00:18:49;;;;;;;6.100001;5.5;;;;;;;18.51;77.27832;94986.55;;;;
2020/06/27 00:19:50;;;;;;;6.100001;5.5;;;;;;;18.51;77.27832;94986.55;;;;
2020/06/27 00:20:50;;;;;;;6.100001;5.5;;;;;;;18.51;77.27832;94986.55;;;;
2020/06/27 00:21:51;;;;;;;6.100001;5.5;;;;;;;18.51;77.27832;94986.55;;;;
2020/06/27 00:22:51;;;;;;;6.100001;5.5;;;;;;;18.51;77.27832;94986.55;;;;
2020/06/27 00:23:52;;;;;;;6.100001;5.5;;;;;;;18.51;77.27832;94986.55;;;;
2020/06/27 00:24:52;;;;;;;6.100001;5.5;;;;;;;18.51;77.27832;94986.55;;;;
2020/06/27 00:25:53;;;;;;;6.100001;5.5;;;;;;;18.51;77.27832;94986.55;;;;
2020/06/27 00:26:54;;;;;;;5.75;5.25;;;;;;;18.43;77.62305;94995.01;;;;
2020/06/27 00:27:56;;;;;;;5.75;5.25;;;;;;;18.43;77.62305;94995.01;;;;
2020/06/27 00:28:56;;;;;;;5.75;5.25;;;;;;;18.43;77.62305;94995.01;;;;
2020/06/27 00:29:57;;;;;;;5.75;5.25;;;;;;;18.43;77.62305;94995.01;;;;
2020/06/27 00:30:57;;;;;;;5.75;5.25;;;;;;;18.43;77.62305;94995.01;;;;
2020/06/27 00:31:58;;;;;;;5.75;5.25;;;;;;;18.43;77.62305;94995.01;;;;
2020/06/27 00:32:58;;;;;;;5.75;5.25;;;;;;;18.43;77.62305;94995.01;;;;
2020/06/27 00:34:03;;;;;;;5.75;5.25;;;;;;;18.43;77.62305;94995.01;;;;
2020/06/27 00:35:04;;;;;;;5.75;5.25;;;;;;;18.43;77.62305;94995.01;;;;
2020/06/27 00:36:06;;;;;;;5.75;5.25;;;;;;;18.43;77.62305;94995.01;;;;
2020/06/27 00:37:06;;;;;;;5.849999;5.1;;;;;;;18.44;78.00781;94987.47;;;;
2020/06/27 00:38:07;;;;;;;5.849999;5.1;;;;;;;18.44;78.00781;94987.47;;;;
2020/06/27 00:39:07;;;;;;;5.849999;5.1;;;;;;;18.44;78.00781;94987.47;;;;
2020/06/27 00:40:08;;;;;;;5.849999;5.1;;;;;;;18.44;78.00781;94987.47;;;;
2020/06/27 00:41:09;;;;;;;5.849999;5.1;;;;;;;18.44;78.00781;94987.47;;;;
2020/06/27 00:42:10;;;;;;;5.849999;5.1;;;;;;;18.44;78.00781;94987.47;;;;
2020/06/27 00:43:10;;;;;;;5.849999;5.1;;;;;;;18.44;78.00781;94987.47;;;;
2020/06/27 00:44:11;;;;;;;5.849999;5.1;;;;;;;18.44;78.00781;94987.47;;;;
2020/06/27 00:45:11;;;;;;;5.849999;5.1;;;;;;;18.44;78.00781;94987.47;;;;
2020/06/27 00:46:12;;;;;;;5.849999;5.1;;;;;;;18.44;78.00781;94987.47;;;;
2020/06/27 00:47:12;;;;;;;5.849999;5.1;;;;;;;18.44;78.00781;94987.47;;;;
2020/06/27 00:48:13;;;;;;;5.9;5.199999;;;;;;;18.39;78.23633;94990.65;;;;
2020/06/27 00:49:14;;;;;;;5.9;5.199999;;;;;;;18.39;78.23633;94990.65;;;;
2020/06/27 00:50:15;;;;;;;5.9;5.199999;;;;;;;18.39;78.23633;94990.65;;;;
2020/06/27 00:51:16;;;;;;;5.9;5.199999;;;;;;;18.39;78.23633;94990.65;;;;
2020/06/27 00:52:17;;;;;;;5.9;5.199999;;;;;;;18.39;78.23633;94990.65;;;;
2020/06/27 00:53:19;;;;;;;5.9;5.199999;;;;;;;18.39;78.23633;94990.65;;;;
2020/06/27 00:54:20;;;;;;;5.9;5.199999;;;;;;;18.39;78.23633;94990.65;;;;
2020/06/27 00:55:21;;;;;;;5.9;5.199999;;;;;;;18.39;78.23633;94990.65;;;;
2020/06/27 00:56:26;;;;;;;5.9;5.199999;;;;;;;18.39;78.23633;94990.65;;;;
2020/06/27 00:57:27;;;;;;;5.9;5.199999;;;;;;;18.39;78.23633;94990.65;;;;
2020/06/27 00:58:27;;;;;;;5.5;4.9;;;;;;;18.38;78.85547;94995.04;;;;
2020/06/27 00:59:28;;;;;;;5.5;4.9;;;;;;;18.38;78.85547;94995.04;;;;
2020/06/27 01:00:28;;;;;;;5.5;4.9;;;;;;;18.38;78.85547;94995.04;;;;
2020/06/27 01:01:29;;;;;;;5.5;4.9;;;;;;;18.38;78.85547;94995.04;;;;
2020/06/27 01:02:30;;;;;;;5.5;4.9;;;;;;;18.38;78.85547;94995.04;;;;
2020/06/27 01:03:31;;;;;;;5.5;4.9;;;;;;;18.38;78.85547;94995.04;;;;
2020/06/27 01:04:31;;;;;;;5.5;4.9;;;;;;;18.38;78.85547;94995.04;;;;
2020/06/27 01:05:32;;;;;;;5.5;4.9;;;;;;;18.38;78.85547;94995.04;;;;
2020/06/27 01:06:33;;;;;;;5.5;4.9;;;;;;;18.38;78.85547;94995.04;;;;
2020/06/27 01:07:33;;;;;;;5.5;4.9;;;;;;;18.38;78.85547;94995.04;;;;
2020/06/27 01:08:34;;;;;;;5.5;4.9;;;;;;;18.38;78.85547;94995.04;;;;
2020/06/27 01:09:35;;;;;;;5.750001;5.05;;;;;;;18.26;79.07324;94990.92;;;;
2020/06/27 01:10:36;;;;;;;5.750001;5.05;;;;;;;18.26;79.07324;94990.92;;;;
2020/06/27 01:11:37;;;;;;;5.750001;5.05;;;;;;;18.26;79.07324;94990.92;;;;
2020/06/27 01:12:37;;;;;;;5.750001;5.05;;;;;;;18.26;79.07324;94990.92;;;;
2020/06/27 01:13:39;;;;;;;5.750001;5.05;;;;;;;18.26;79.07324;94990.92;;;;
2020/06/27 01:14:39;;;;;;;5.750001;5.05;;;;;;;18.26;79.07324;94990.92;;;;
2020/06/27 01:15:40;;;;;;;5.750001;5.05;;;;;;;18.26;79.07324;94990.92;;;;
2020/06/27 01:16:40;;;;;;;5.750001;5.05;;;;;;;18.26;79.07324;94990.92;;;;
2020/06/27 01:17:41;;;;;;;5.750001;5.05;;;;;;;18.26;79.07324;94990.92;;;;
2020/06/27 01:18:44;;;;;;;5.750001;5.05;;;;;;;18.26;79.07324;94990.92;;;;
2020/06/27 01:19:44;;;;;;;5.599999;5.1;;;;;;;18.23;79.85059;94998.35;;;;
2020/06/27 01:20:45;;;;;;;5.599999;5.1;;;;;;;18.23;79.85059;94998.35;;;;
2020/06/27 01:21:47;;;;;;;5.599999;5.1;;;;;;;18.23;79.85059;94998.35;;;;
2020/06/27 01:22:47;;;;;;;5.599999;5.1;;;;;;;18.23;79.85059;94998.35;;;;
2020/06/27 01:23:49;;;;;;;5.599999;5.1;;;;;;;18.23;79.85059;94998.35;;;;
2020/06/27 01:24:50;;;;;;;5.599999;5.1;;;;;;;18.23;79.85059;94998.35;;;;
2020/06/27 01:25:50;;;;;;;5.599999;5.1;;;;;;;18.23;79.85059;94998.35;;;;
2020/06/27 01:26:51;;;;;;;5.599999;5.1;;;;;;;18.23;79.85059;94998.35;;;;
2020/06/27 01:27:51;;;;;;;5.599999;5.1;;;;;;;18.23;79.85059;94998.35;;;;
2020/06/27 01:28:53;;;;;;;5.599999;5.1;;;;;;;18.23;79.85059;94998.35;;;;
2020/06/27 01:29:53;;;;;;;5.699999;5.149999;;;;;;;18.12;80.59082;95011.86;;;;
2020/06/27 01:30:54;;;;;;;5.699999;5.149999;;;;;;;18.12;80.59082;95011.86;;;;
2020/06/27 01:31:54;;;;;;;5.699999;5.149999;;;;;;;18.12;80.59082;95011.86;;;;
2020/06/27 01:32:55;;;;;;;5.699999;5.149999;;;;;;;18.12;80.59082;95011.86;;;;
2020/06/27 01:33:56;;;;;;;5.699999;5.149999;;;;;;;18.12;80.59082;95011.86;;;;
2020/06/27 01:34:56;;;;;;;5.699999;5.149999;;;;;;;18.12;80.59082;95011.86;;;;
2020/06/27 01:35:57;;;;;;;5.699999;5.149999;;;;;;;18.12;80.59082;95011.86;;;;
2020/06/27 01:36:57;;;;;;;5.699999;5.149999;;;;;;;18.12;80.59082;95011.86;;;;
2020/06/27 01:37:58;;;;;;;5.699999;5.149999;;;;;;;18.12;80.59082;95011.86;;;;
2020/06/27 01:39:01;;;;;;;5.699999;5.149999;;;;;;;18.12;80.59082;95011.86;;;;
2020/06/27 01:40:02;;;;;;;5.699999;5.149999;;;;;;;18.12;80.59082;95011.86;;;;
2020/06/27 01:41:03;;;;;;;5.849999;5.349999;;;;;;;18.08;81.55273;95017.08;;;;
2020/06/27 01:42:04;;;;;;;5.849999;5.349999;;;;;;;18.08;81.55273;95017.08;;;;
2020/06/27 01:43:05;;;;;;;5.849999;5.349999;;;;;;;18.08;81.55273;95017.08;;;;
2020/06/27 01:44:05;;;;;;;5.849999;5.349999;;;;;;;18.08;81.55273;95017.08;;;;
2020/06/27 01:45:06;;;;;;;5.849999;5.349999;;;;;;;18.08;81.55273;95017.08;;;;
2020/06/27 01:46:08;;;;;;;5.849999;5.349999;;;;;;;18.08;81.55273;95017.08;;;;
2020/06/27 01:47:08;;;;;;;5.849999;5.349999;;;;;;;18.08;81.55273;95017.08;;;;
2020/06/27 01:48:09;;;;;;;5.849999;5.349999;;;;;;;18.08;81.55273;95017.08;;;;
2020/06/27 01:49:09;;;;;;;5.849999;5.349999;;;;;;;18.08;81.55273;95017.08;;;;
2020/06/27 01:50:10;;;;;;;5.849999;5.349999;;;;;;;18.08;81.55273;95017.08;;;;
2020/06/27 01:51:12;;;;;;;5.55;5.05;;;;;;;18;82.08008;95028.25;;;;
2020/06/27 01:52:13;;;;;;;5.55;5.05;;;;;;;18;82.08008;95028.25;;;;
2020/06/27 01:53:13;;;;;;;5.55;5.05;;;;;;;18;82.08008;95028.25;;;;
2020/06/27 01:54:14;;;;;;;5.55;5.05;;;;;;;18;82.08008;95028.25;;;;
2020/06/27 01:55:14;;;;;;;5.55;5.05;;;;;;;18;82.08008;95028.25;;;;
2020/06/27 01:56:15;;;;;;;5.55;5.05;;;;;;;18;82.08008;95028.25;;;;
2020/06/27 01:57:16;;;;;;;5.55;5.05;;;;;;;18;82.08008;95028.25;;;;
2020/06/27 01:58:16;;;;;;;5.55;5.05;;;;;;;18;82.08008;95028.25;;;;
2020/06/27 01:59:17;;;;;;;5.55;5.05;;;;;;;18;82.08008;95028.25;;;;
2020/06/27 02:00:17;;;;;;;5.55;5.05;;;;;;;18;82.08008;95028.25;;;;
2020/06/27 02:01:20;;;;;;;5.55;5.05;;;;;;;18;82.08008;95028.25;;;;
2020/06/27 02:02:20;;;;;;;6.1;5.5;;;;;;;17.98;82.81348;95015.97;;;;
2020/06/27 02:03:20;;;;;;;6.1;5.5;;;;;;;17.98;82.81348;95015.97;;;;
2020/06/27 02:04:21;;;;;;;6.1;5.5;;;;;;;17.98;82.81348;95015.97;;;;
2020/06/27 02:05:21;;;;;;;6.1;5.5;;;;;;;17.98;82.81348;95015.97;;;;
2020/06/27 02:06:22;;;;;;;6.1;5.5;;;;;;;17.98;82.81348;95015.97;;;;
2020/06/27 02:07:22;;;;;;;6.1;5.5;;;;;;;17.98;82.81348;95015.97;;;;
2020/06/27 02:08:23;;;;;;;6.1;5.5;;;;;;;17.98;82.81348;95015.97;;;;
2020/06/27 02:09:24;;;;;;;6.1;5.5;;;;;;;17.98;82.81348;95015.97;;;;
2020/06/27 02:10:24;;;;;;;6.1;5.5;;;;;;;17.98;82.81348;95015.97;;;;
2020/06/27 02:11:25;;;;;;;6.1;5.5;;;;;;;17.98;82.81348;95015.97;;;;
2020/06/27 02:12:25;;;;;;;5.75;5.25;;;;;;;17.87;83.41309;95020.31;;;;
2020/06/27 02:13:26;;;;;;;5.75;5.25;;;;;;;17.87;83.41309;95020.31;;;;
2020/06/27 02:14:26;;;;;;;5.75;5.25;;;;;;;17.87;83.41309;95020.31;;;;
2020/06/27 02:15:27;;;;;;;5.75;5.25;;;;;;;17.87;83.41309;95020.31;;;;
2020/06/27 02:16:27;;;;;;;5.75;5.25;;;;;;;17.87;83.41309;95020.31;;;;
2020/06/27 02:17:28;;;;;;;5.75;5.25;;;;;;;17.87;83.41309;95020.31;;;;
2020/06/27 02:18:28;;;;;;;5.75;5.25;;;;;;;17.87;83.41309;95020.31;;;;
2020/06/27 02:19:29;;;;;;;5.75;5.25;;;;;;;17.87;83.41309;95020.31;;;;
2020/06/27 02:20:29;;;;;;;5.75;5.25;;;;;;;17.87;83.41309;95020.31;;;;
2020/06/27 02:21:30;;;;;;;5.75;5.25;;;;;;;17.87;83.41309;95020.31;;;;
2020/06/27 02:22:30;;;;;;;5.75;5.25;;;;;;;17.87;83.41309;95020.31;;;;
2020/06/27 02:23:31;;;;;;;5.7;5.2;;;;;;;17.79;84.2666;95010.43;;;;
2020/06/27 02:24:31;;;;;;;5.7;5.2;;;;;;;17.79;84.2666;95010.43;;;;
2020/06/27 02:25:32;;;;;;;5.7;5.2;;;;;;;17.79;84.2666;95010.43;;;;
2020/06/27 02:26:32;;;;;;;5.7;5.2;;;;;;;17.79;84.2666;95010.43;;;;
2020/06/27 02:27:33;;;;;;;5.7;5.2;;;;;;;17.79;84.2666;95010.43;;;;
2020/06/27 02:28:34;;;;;;;5.7;5.2;;;;;;;17.79;84.2666;95010.43;;;;
2020/06/27 02:29:35;;;;;;;5.7;5.2;;;;;;;17.79;84.2666;95010.43;;;;
2020/06/27 02:30:35;;;;;;;5.7;5.2;;;;;;;17.79;84.2666;95010.43;;;;
2020/06/27 02:31:35;;;;;;;5.7;5.2;;;;;;;17.79;84.2666;95010.43;;;;
2020/06/27 02:32:36;;;;;;;5.7;5.2;;;;;;;17.79;84.2666;95010.43;;;;
2020/06/27 02:33:37;;;;;;;5.75;5.25;;;;;;;17.6;85.0332;95011.27;;;;
2020/06/27 02:34:37;;;;;;;5.75;5.25;;;;;;;17.6;85.0332;95011.27;;;;
2020/06/27 02:35:37;;;;;;;5.75;5.25;;;;;;;17.6;85.0332;95011.27;;;;
2020/06/27 02:36:38;;;;;;;5.75;5.25;;;;;;;17.6;85.0332;95011.27;;;;
2020/06/27 02:37:39;;;;;;;5.75;5.25;;;;;;;17.6;85.0332;95011.27;;;;
2020/06/27 02:38:40;;;;;;;5.75;5.25;;;;;;;17.6;85.0332;95011.27;;;;
2020/06/27 02:39:40;;;;;;;5.75;5.25;;;;;;;17.6;85.0332;95011.27;;;;
2020/06/27 02:40:40;;;;;;;5.75;5.25;;;;;;;17.6;85.0332;95011.27;;;;
2020/06/27 02:41:41;;;;;;;5.75;5.25;;;;;;;17.6;85.0332;95011.27;;;;
2020/06/27 02:42:42;;;;;;;5.75;5.25;;;;;;;17.6;85.0332;95011.27;;;;
2020/06/27 02:43:42;;;;;;;5.75;5.25;;;;;;;17.6;85.0332;95011.27;;;;
2020/06/27 02:44:42;;;;;;;5.65;5.1;;;;;;;17.43;86.00586;95005.36;;;;
2020/06/27 02:45:43;;;;;;;5.65;5.1;;;;;;;17.43;86.00586;95005.36;;;;
2020/06/27 02:46:44;;;;;;;5.65;5.1;;;;;;;17.43;86.00586;95005.36;;;;
2020/06/27 02:47:44;;;;;;;5.65;5.1;;;;;;;17.43;86.00586;95005.36;;;;
2020/06/27 02:48:45;;;;;;;5.65;5.1;;;;;;;17.43;86.00586;95005.36;;;;
2020/06/27 02:49:45;;;;;;;5.65;5.1;;;;;;;17.43;86.00586;95005.36;;;;
2020/06/27 02:50:46;;;;;;;5.65;5.1;;;;;;;17.43;86.00586;95005.36;;;;
2020/06/27 02:51:47;;;;;;;5.65;5.1;;;;;;;17.43;86.00586;95005.36;;;;
2020/06/27 02:52:47;;;;;;;5.65;5.1;;;;;;;17.43;86.00586;95005.36;;;;
2020/06/27 02:53:49;;;;;;;5.65;5.1;;;;;;;17.43;86.00586;95005.36;;;;
2020/06/27 02:54:49;;;;;;;5.85;5.25;;;;;;;17.12;86.62988;95021.17;;;;
2020/06/27 02:55:50;;;;;;;5.85;5.25;;;;;;;17.12;86.62988;95021.17;;;;
2020/06/27 02:56:50;;;;;;;5.85;5.25;;;;;;;17.12;86.62988;95021.17;;;;
2020/06/27 02:57:51;;;;;;;5.85;5.25;;;;;;;17.12;86.62988;95021.17;;;;
2020/06/27 02:58:54;;;;;;;5.85;5.25;;;;;;;17.12;86.62988;95021.17;;;;
2020/06/27 02:59:54;;;;;;;5.85;5.25;;;;;;;17.12;86.62988;95021.17;;;;
2020/06/27 03:00:55;;;;;;;5.85;5.25;;;;;;;17.12;86.62988;95021.17;;;;
2020/06/27 03:01:55;;;;;;;5.85;5.25;;;;;;;17.12;86.62988;95021.17;;;;
2020/06/27 03:02:56;;;;;;;5.85;5.25;;;;;;;17.12;86.62988;95021.17;;;;
2020/06/27 03:03:57;;;;;;;5.85;5.25;;;;;;;17.12;86.62988;95021.17;;;;
2020/06/27 03:04:58;;;;;;;5.85;5.25;;;;;;;17.12;86.62988;95021.17;;;;
2020/06/27 03:05:58;;;;;;;5.849999;5.349999;;;;;;;16.86;87.36816;95029.35;;;;
2020/06/27 03:06:59;;;;;;;5.849999;5.349999;;;;;;;16.86;87.36816;95029.35;;;;
2020/06/27 03:07:59;;;;;;;5.849999;5.349999;;;;;;;16.86;87.36816;95029.35;;;;
2020/06/27 03:09:00;;;;;;;5.849999;5.349999;;;;;;;16.86;87.36816;95029.35;;;;
2020/06/27 03:10:01;;;;;;;5.849999;5.349999;;;;;;;16.86;87.36816;95029.35;;;;
2020/06/27 03:11:03;;;;;;;5.849999;5.349999;;;;;;;16.86;87.36816;95029.35;;;;
2020/06/27 03:12:04;;;;;;;5.849999;5.349999;;;;;;;16.86;87.36816;95029.35;;;;
2020/06/27 03:13:05;;;;;;;5.849999;5.349999;;;;;;;16.86;87.36816;95029.35;;;;
2020/06/27 03:14:05;;;;;;;5.849999;5.349999;;;;;;;16.86;87.36816;95029.35;;;;
2020/06/27 03:15:05;;;;;;;5.849999;5.349999;;;;;;;16.86;87.36816;95029.35;;;;
2020/06/27 03:16:14;;;;;;;6;5.4;;;;;;;16.67;88.13086;95036.94;;;;
2020/06/27 03:17:15;;;;;;;6;5.4;;;;;;;16.67;88.13086;95036.94;;;;
2020/06/27 03:18:16;;;;;;;6;5.4;;;;;;;16.67;88.13086;95036.94;;;;
2020/06/27 03:19:16;;;;;;;6;5.4;;;;;;;16.67;88.13086;95036.94;;;;
2020/06/27 03:20:17;;;;;;;6;5.4;;;;;;;16.67;88.13086;95036.94;;;;
2020/06/27 03:21:17;;;;;;;6;5.4;;;;;;;16.67;88.13086;95036.94;;;;
2020/06/27 03:22:34;;;;;;;6;5.4;;;;;;;16.67;88.13086;95036.94;;;;
2020/06/27 03:23:35;;;;;;;6;5.4;;;;;;;16.67;88.13086;95036.94;;;;
2020/06/27 03:24:37;;;;;;;6;5.4;;;;;;;16.67;88.13086;95036.94;;;;
2020/06/27 03:25:37;;;;;;;6;5.4;;;;;;;16.67;88.13086;95036.94;;;;
2020/06/27 03:26:38;;;;;;;5.849999;5.35;;;;;;;16.62;88.67188;95024.14;;;;
2020/06/27 03:27:38;;;;;;;5.849999;5.35;;;;;;;16.62;88.67188;95024.14;;;;
2020/06/27 03:28:40;;;;;;;5.849999;5.35;;;;;;;16.62;88.67188;95024.14;;;;
2020/06/27 03:29:46;;;;;;;5.849999;5.35;;;;;;;16.62;88.67188;95024.14;;;;
2020/06/27 03:30:49;;;;;;;5.849999;5.35;;;;;;;16.62;88.67188;95024.14;;;;
2020/06/27 03:31:49;;;;;;;5.849999;5.35;;;;;;;16.62;88.67188;95024.14;;;;
2020/06/27 03:32:50;;;;;;;5.849999;5.35;;;;;;;16.62;88.67188;95024.14;;;;
2020/06/27 03:33:52;;;;;;;5.849999;5.35;;;;;;;16.62;88.67188;95024.14;;;;
2020/06/27 03:34:53;;;;;;;5.849999;5.35;;;;;;;16.62;88.67188;95024.14;;;;
2020/06/27 03:35:54;;;;;;;5.849999;5.35;;;;;;;16.62;88.67188;95024.14;;;;
2020/06/27 03:36:54;;;;;;;5.849999;5.35;;;;;;;16.62;88.67188;95024.14;;;;
2020/06/27 03:37:56;;;;;;;6.4;5.349999;;;;;;;16.53;89.20605;95035.77;;;;
2020/06/27 03:38:57;;;;;;;6.4;5.349999;;;;;;;16.53;89.20605;95035.77;;;;
2020/06/27 03:39:58;;;;;;;6.4;5.349999;;;;;;;16.53;89.20605;95035.77;;;;
2020/06/27 03:41:01;;;;;;;6.4;5.349999;;;;;;;16.53;89.20605;95035.77;;;;
2020/06/27 03:42:04;;;;;;;6.4;5.349999;;;;;;;16.53;89.20605;95035.77;;;;
2020/06/27 03:43:05;;;;;;;6.4;5.349999;;;;;;;16.53;89.20605;95035.77;;;;
2020/06/27 03:44:05;;;;;;;6.4;5.349999;;;;;;;16.53;89.20605;95035.77;;;;
2020/06/27 03:45:06;;;;;;;6.4;5.349999;;;;;;;16.53;89.20605;95035.77;;;;
2020/06/27 03:46:10;;;;;;;6.4;5.349999;;;;;;;16.53;89.20605;95035.77;;;;
2020/06/27 03:47:13;;;;;;;6.4;5.349999;;;;;;;16.53;89.20605;95035.77;;;;
2020/06/27 03:48:14;;;;;;;6;5.5;;;;;;;16.5;89.48828;95032.78;;;;
2020/06/27 03:49:15;;;;;;;6;5.5;;;;;;;16.5;89.48828;95032.78;;;;
2020/06/27 03:50:16;;;;;;;6;5.5;;;;;;;16.5;89.48828;95032.78;;;;
2020/06/27 03:51:20;;;;;;;6;5.5;;;;;;;16.5;89.48828;95032.78;;;;
2020/06/27 03:52:24;;;;;;;6;5.5;;;;;;;16.5;89.48828;95032.78;;;;
2020/06/27 03:53:27;;;;;;;6;5.5;;;;;;;16.5;89.48828;95032.78;;;;
2020/06/27 03:54:28;;;;;;;6;5.5;;;;;;;16.5;89.48828;95032.78;;;;
2020/06/27 03:55:32;;;;;;;6;5.5;;;;;;;16.5;89.48828;95032.78;;;;
2020/06/27 03:56:33;;;;;;;6;5.5;;;;;;;16.5;89.48828;95032.78;;;;
2020/06/27 03:57:34;;;;;;;6;5.5;;;;;;;16.5;89.48828;95032.78;;;;
2020/06/27 03:58:35;;;;;;;5.95;5.450001;;;;;;;16.39;89.88867;95032.92;;;;
2020/06/27 03:59:37;;;;;;;5.95;5.450001;;;;;;;16.39;89.88867;95032.92;;;;
2020/06/27 04:00:38;;;;;;;5.95;5.450001;;;;;;;16.39;89.88867;95032.92;;;;
2020/06/27 04:01:39;;;;;;;5.95;5.450001;;;;;;;16.39;89.88867;95032.92;;;;
2020/06/27 04:02:40;;;;;;;5.95;5.450001;;;;;;;16.39;89.88867;95032.92;;;;
2020/06/27 04:03:40;;;;;;;5.95;5.450001;;;;;;;16.39;89.88867;95032.92;;;;
2020/06/27 04:04:43;;;;;;;5.95;5.450001;;;;;;;16.39;89.88867;95032.92;;;;
2020/06/27 04:05:44;;;;;;;5.95;5.450001;;;;;;;16.39;89.88867;95032.92;;;;
2020/06/27 04:06:44;;;;;;;5.95;5.450001;;;;;;;16.39;89.88867;95032.92;;;;
2020/06/27 04:07:45;;;;;;;5.95;5.450001;;;;;;;16.39;89.88867;95032.92;;;;
2020/06/27 04:08:49;;;;;;;5.95;5.450001;;;;;;;16.39;89.88867;95032.92;;;;
2020/06/27 04:09:51;;;;;;;6;5.400001;;;;;;;16.37;90.14355;95035.11;;;;
2020/06/27 04:10:51;;;;;;;6;5.400001;;;;;;;16.37;90.14355;95035.11;;;;
2020/06/27 04:11:52;;;;;;;6;5.400001;;;;;;;16.37;90.14355;95035.11;;;;
2020/06/27 04:12:53;;;;;;;6;5.400001;;;;;;;16.37;90.14355;95035.11;;;;
2020/06/27 04:13:53;;;;;;;6;5.400001;;;;;;;16.37;90.14355;95035.11;;;;
2020/06/27 04:14:54;;;;;;;6;5.400001;;;;;;;16.37;90.14355;95035.11;;;;
2020/06/27 04:15:55;;;;;;;6;5.400001;;;;;;;16.37;90.14355;95035.11;;;;
2020/06/27 04:16:56;;;;;;;6;5.400001;;;;;;;16.37;90.14355;95035.11;;;;
2020/06/27 04:17:58;;;;;;;6;5.400001;;;;;;;16.37;90.14355;95035.11;;;;
2020/06/27 04:18:59;;;;;;;6;5.400001;;;;;;;16.37;90.14355;95035.11;;;;
2020/06/27 04:19:59;;;;;;;6;5.05;;;;;;;16.33;90.41602;95033.64;;;;
2020/06/27 04:21:00;;;;;;;6;5.05;;;;;;;16.33;90.41602;95033.64;;;;
2020/06/27 04:22:02;;;;;;;6;5.05;;;;;;;16.33;90.41602;95033.64;;;;
2020/06/27 04:23:03;;;;;;;6;5.05;;;;;;;16.33;90.41602;95033.64;;;;
2020/06/27 04:24:05;;;;;;;6;5.05;;;;;;;16.33;90.41602;95033.64;;;;
2020/06/27 04:25:05;;;;;;;6;5.05;;;;;;;16.33;90.41602;95033.64;;;;
2020/06/27 04:26:08;;;;;;;6;5.05;;;;;;;16.33;90.41602;95033.64;;;;
2020/06/27 04:27:08;;;;;;;6;5.05;;;;;;;16.33;90.41602;95033.64;;;;
2020/06/27 04:28:09;;;;;;;6;5.05;;;;;;;16.33;90.41602;95033.64;;;;
2020/06/27 04:29:09;;;;;;;6;5.05;;;;;;;16.33;90.41602;95033.64;;;;
2020/06/27 04:30:10;;;;;;;6;5.05;;;;;;;16.33;90.41602;95033.64;;;;
2020/06/27 04:31:11;;;;;;;5.149999;4.649999;;;;;;;16.44;90.66602;95027.86;;;;
2020/06/27 04:32:11;;;;;;;5.149999;4.649999;;;;;;;16.44;90.66602;95027.86;;;;
2020/06/27 04:33:12;;;;;;;5.149999;4.649999;;;;;;;16.44;90.66602;95027.86;;;;
2020/06/27 04:34:12;;;;;;;5.149999;4.649999;;;;;;;16.44;90.66602;95027.86;;;;
2020/06/27 04:35:13;;;;;;;5.149999;4.649999;;;;;;;16.44;90.66602;95027.86;;;;
2020/06/27 04:36:16;;;;;;;5.149999;4.649999;;;;;;;16.44;90.66602;95027.86;;;;
2020/06/27 04:37:16;;;;;;;5.149999;4.649999;;;;;;;16.44;90.66602;95027.86;;;;
2020/06/27 04:38:17;;;;;;;5.149999;4.649999;;;;;;;16.44;90.66602;95027.86;;;;
2020/06/27 04:39:17;;;;;;;5.149999;4.649999;;;;;;;16.44;90.66602;95027.86;;;;
2020/06/27 04:40:18;;;;;;;5.149999;4.649999;;;;;;;16.44;90.66602;95027.86;;;;
2020/06/27 04:41:19;;;;;;;5.100001;4.699999;;;;;;;16.59;90.64063;95025.24;;;;
2020/06/27 04:42:19;;;;;;;5.100001;4.699999;;;;;;;16.59;90.64063;95025.24;;;;
2020/06/27 04:43:20;;;;;;;5.100001;4.699999;;;;;;;16.59;90.64063;95025.24;;;;
2020/06/27 04:44:20;;;;;;;5.100001;4.699999;;;;;;;16.59;90.64063;95025.24;;;;
2020/06/27 04:45:21;;;;;;;5.100001;4.699999;;;;;;;16.59;90.64063;95025.24;;;;
2020/06/27 04:46:21;;;;;;;5.100001;4.699999;;;;;;;16.59;90.64063;95025.24;;;;
2020/06/27 04:47:23;;;;;;;5.100001;4.699999;;;;;;;16.59;90.64063;95025.24;;;;
2020/06/27 04:48:23;;;;;;;5.100001;4.699999;;;;;;;16.59;90.64063;95025.24;;;;
2020/06/27 04:49:24;;;;;;;5.100001;4.699999;;;;;;;16.59;90.64063;95025.24;;;;
2020/06/27 04:50:24;;;;;;;5.100001;4.699999;;;;;;;16.59;90.64063;95025.24;;;;
2020/06/27 04:51:25;;;;;;;5.100001;4.699999;;;;;;;16.59;90.64063;95025.24;;;;
2020/06/27 04:52:25;;;;;;;5.350001;4.95;;;;;;;16.89;90.60547;95030.98;;;;
2020/06/27 04:53:26;;;;;;;5.350001;4.95;;;;;;;16.89;90.60547;95030.98;;;;
2020/06/27 04:54:26;;;;;;;5.350001;4.95;;;;;;;16.89;90.60547;95030.98;;;;
2020/06/27 04:55:27;;;;;;;5.350001;4.95;;;;;;;16.89;90.60547;95030.98;;;;
2020/06/27 04:56:28;;;;;;;5.350001;4.95;;;;;;;16.89;90.60547;95030.98;;;;
2020/06/27 04:57:28;;;;;;;5.350001;4.95;;;;;;;16.89;90.60547;95030.98;;;;
2020/06/27 04:58:29;;;;;;;5.350001;4.95;;;;;;;16.89;90.60547;95030.98;;;;
2020/06/27 04:59:29;;;;;;;5.350001;4.95;;;;;;;16.89;90.60547;95030.98;;;;
2020/06/27 05:00:29;;;;;;;5.350001;4.95;;;;;;;16.89;90.60547;95030.98;;;;
2020/06/27 05:01:30;;;;;;;5.350001;4.95;;;;;;;16.89;90.60547;95030.98;;;;
2020/06/27 05:02:31;;;;;;;4.75;4.349999;;;;;;;17.2;90.21484;95047.83;;;;
2020/06/27 05:03:31;;;;;;;4.75;4.349999;;;;;;;17.2;90.21484;95047.83;;;;
2020/06/27 05:04:32;;;;;;;4.75;4.349999;;;;;;;17.2;90.21484;95047.83;;;;
2020/06/27 05:05:32;;;;;;;4.75;4.349999;;;;;;;17.2;90.21484;95047.83;;;;
2020/06/27 05:06:32;;;;;;;4.75;4.349999;;;;;;;17.2;90.21484;95047.83;;;;
2020/06/27 05:07:33;;;;;;;4.75;4.349999;;;;;;;17.2;90.21484;95047.83;;;;
2020/06/27 05:08:34;;;;;;;4.75;4.349999;;;;;;;17.2;90.21484;95047.83;;;;
2020/06/27 05:09:34;;;;;;;4.75;4.349999;;;;;;;17.2;90.21484;95047.83;;;;
2020/06/27 05:10:35;;;;;;;4.75;4.349999;;;;;;;17.2;90.21484;95047.83;;;;
2020/06/27 05:11:36;;;;;;;4.75;4.349999;;;;;;;17.2;90.21484;95047.83;;;;
2020/06/27 05:12:37;;;;;;;4.75;4.349999;;;;;;;17.2;90.21484;95047.83;;;;
2020/06/27 05:13:38;;;;;;;4.849999;4.45;;;;;;;17.62;89.80273;95046.34;;;;
2020/06/27 05:14:41;;;;;;;4.849999;4.45;;;;;;;17.62;89.80273;95046.34;;;;
2020/06/27 05:15:41;;;;;;;4.849999;4.45;;;;;;;17.62;89.80273;95046.34;;;;
2020/06/27 05:16:41;;;;;;;4.849999;4.45;;;;;;;17.62;89.80273;95046.34;;;;
2020/06/27 05:17:42;;;;;;;4.849999;4.45;;;;;;;17.62;89.80273;95046.34;;;;
2020/06/27 05:18:43;;;;;;;4.849999;4.45;;;;;;;17.62;89.80273;95046.34;;;;
2020/06/27 05:19:43;;;;;;;4.849999;4.45;;;;;;;17.62;89.80273;95046.34;;;;
2020/06/27 05:20:44;;;;;;;4.849999;4.45;;;;;;;17.62;89.80273;95046.34;;;;
2020/06/27 05:21:44;;;;;;;4.849999;4.45;;;;;;;17.62;89.80273;95046.34;;;;
2020/06/27 05:22:45;;;;;;;4.849999;4.45;;;;;;;17.62;89.80273;95046.34;;;;
2020/06/27 05:23:46;;;;;;;4.55;4.25;;;;;;;18.02;89.2002;95061.56;;;;
2020/06/27 05:24:46;;;;;;;4.55;4.25;;;;;;;18.02;89.2002;95061.56;;;;
2020/06/27 05:25:47;;;;;;;4.55;4.25;;;;;;;18.02;89.2002;95061.56;;;;
2020/06/27 05:26:47;;;;;;;4.55;4.25;;;;;;;18.02;89.2002;95061.56;;;;
2020/06/27 05:27:48;;;;;;;4.55;4.25;;;;;;;18.02;89.2002;95061.56;;;;
2020/06/27 05:28:49;;;;;;;4.55;4.25;;;;;;;18.02;89.2002;95061.56;;;;
2020/06/27 05:29:50;;;;;;;4.55;4.25;;;;;;;18.02;89.2002;95061.56;;;;
2020/06/27 05:30:50;;;;;;;4.55;4.25;;;;;;;18.02;89.2002;95061.56;;;;
2020/06/27 05:31:51;;;;;;;4.55;4.25;;;;;;;18.02;89.2002;95061.56;;;;
2020/06/27 05:32:52;;;;;;;4.55;4.25;;;;;;;18.02;89.2002;95061.56;;;;
2020/06/27 05:33:52;;;;;;;4.55;4.25;;;;;;;18.02;89.2002;95061.56;;;;
2020/06/27 05:34:53;;;;;;;4.45;4.05;;;;;;;18.52;88.7793;95077.07;;;;
2020/06/27 05:35:53;;;;;;;4.45;4.05;;;;;;;18.52;88.7793;95077.07;;;;
2020/06/27 05:36:54;;;;;;;4.45;4.05;;;;;;;18.52;88.7793;95077.07;;;;